Fall Creek, Wisconsin
Current Conditions -  °F | °C
As of 2:56 AM on Monday 24 Nov 2014 (Local Time) from KEAU Reporting Station
Overcast Overcast  
Wind Chill: 28°   Ceiling: 1000
Heat Index: 36°   Visibility: 10mi
Dew Point: 33°   Wind: 12mph
Humidity: 89%   Direction: 320°NW
Pressure: 29.18"   Gusts: NA
Location:  44.76°N, 91.28°W
Report Text: KEAU 240856Z AUTO 32010KT 10SM OVC010 02/01 A2918 RMK AO2 SLP887 T00220006 56006
Loading
Personal Weather Stations






























Interactive Weather Map New forecast layout! Learn more

10-Day Weather Forecast

Advertisements
Track Severe Weather on mobile